Time;durP1;ratioP1;P1;durP2;ratioP2;P2;SDS_P1;SDS_P2;PMS_P1;PMS_P2;Temp;Humidity;BMP_temperature;BMP_pressure;BME280_temperature;BME280_humidity;BME280_pressure;Samples;Min_cycle;Max_cycle;Signal;HPM_P1;HPM_P2
2022/01/19 00:01:31;;;;;;;108.57;41.45;;;4.70;99.90;;;;;;5019823;28;20072;-81
2022/01/19 00:03:57;;;;;;;102.38;39.63;;;4.60;99.90;;;;;;5036391;28;20044;-81
2022/01/19 00:06:23;;;;;;;108.13;40.33;;;4.70;99.90;;;;;;5019908;28;20504;-80
2022/01/19 00:08:50;;;;;;;117.90;41.03;;;4.60;99.90;;;;;;5035704;28;20068;-81
2022/01/19 00:11:16;;;;;;;102.90;39.22;;;4.70;99.90;;;;;;5018649;28;20075;-81
2022/01/19 00:13:42;;;;;;;104.47;39.33;;;5.30;99.90;;;;;;5020031;28;20155;-81
2022/01/19 00:16:07;;;;;;;108.57;39.55;;;4.60;99.90;;;;;;5019461;28;20068;-81
2022/01/19 00:18:33;;;;;;;95.35;38.20;;;4.70;99.90;;;;;;5003160;28;20561;-81
2022/01/19 00:20:59;;;;;;;101.55;40.10;;;4.70;99.90;;;;;;5002715;28;20404;-81
2022/01/19 00:23:25;;;;;;;92.03;35.13;;;4.70;99.90;;;;;;5003205;28;20041;-81
2022/01/19 00:25:53;;;;;;;104.32;40.47;;;4.70;99.90;;;;;;5035154;28;20510;-81
2022/01/19 00:28:19;;;;;;;104.55;39.95;;;4.80;99.90;;;;;;5035559;28;20174;-81
2022/01/19 00:30:46;;;;;;;107.70;41.63;;;4.70;99.90;;;;;;5018761;28;20033;-81
2022/01/19 00:33:13;;;;;;;107.32;41.92;;;5.00;99.90;;;;;;5036052;28;20120;-81
2022/01/19 00:35:40;;;;;;;102.93;42.13;;;4.70;99.90;;;;;;5019024;28;20123;-81
2022/01/19 00:38:09;;;;;;;106.30;39.88;;;4.70;99.90;;;;;;5018980;28;20125;-81
2022/01/19 00:40:36;;;;;;;108.32;41.75;;;4.70;99.90;;;;;;5018109;28;20048;-81
2022/01/19 00:43:02;;;;;;;96.93;40.30;;;4.70;99.90;;;;;;5018922;28;20043;-81
2022/01/19 00:45:28;;;;;;;99.72;40.33;;;4.70;99.90;;;;;;5035458;28;20493;-81
2022/01/19 00:47:54;;;;;;;102.00;40.95;;;4.70;99.90;;;;;;5019093;28;20043;-81
2022/01/19 00:50:23;;;;;;;101.70;41.47;;;4.70;99.90;;;;;;5018760;28;20505;-81
2022/01/19 00:52:51;;;;;;;105.38;40.22;;;4.70;99.90;;;;;;5018762;28;20047;-81
2022/01/19 00:55:19;;;;;;;103.05;41.33;;;4.60;99.90;;;;;;5034619;28;20061;-81
2022/01/19 00:57:45;;;;;;;93.55;39.00;;;4.60;99.90;;;;;;5035406;28;20106;-81
2022/01/19 01:00:15;;;;;;;88.28;36.13;;;4.60;99.90;;;;;;5018797;28;20077;-81
2022/01/19 01:02:41;;;;;;;88.28;36.85;;;4.70;99.90;;;;;;5018816;28;20047;-81
2022/01/19 01:05:07;;;;;;;89.63;37.03;;;4.70;99.90;;;;;;5002327;28;20033;-81
2022/01/19 01:07:35;;;;;;;87.40;37.63;;;4.60;99.90;;;;;;5018439;28;20049;-81
2022/01/19 01:10:02;;;;;;;101.07;37.97;;;4.60;99.90;;;;;;5035315;28;20121;-81
2022/01/19 01:12:44;;;;;;;83.32;35.30;;;4.50;99.90;;;;;;5001620;28;20037;-81
2022/01/19 01:20:28;;;;;;;82.30;35.50;;;4.20;99.90;;;;;;5034500;28;20094;-81
2022/01/19 01:22:54;;;;;;;84.80;35.97;;;4.20;99.90;;;;;;5035417;28;20527;-81
2022/01/19 01:25:20;;;;;;;78.97;36.05;;;4.10;99.90;;;;;;5001376;28;20037;-81
2022/01/19 01:27:46;;;;;;;86.88;35.50;;;4.20;99.90;;;;;;5018335;28;20041;-81
2022/01/19 01:30:12;;;;;;;78.00;32.25;;;4.10;99.90;;;;;;5018673;28;20485;-81
2022/01/19 01:32:38;;;;;;;76.55;32.75;;;4.10;99.90;;;;;;5034217;28;20059;-81
2022/01/19 01:35:05;;;;;;;69.85;31.65;;;4.60;99.90;;;;;;5018459;28;20132;-81
2022/01/19 01:37:31;;;;;;;68.50;30.73;;;3.90;99.90;;;;;;5018173;28;20098;-81
2022/01/19 01:39:57;;;;;;;74.22;29.40;;;3.80;99.90;;;;;;5034730;28;20087;-81
2022/01/19 01:42:24;;;;;;;85.22;31.52;;;4.30;99.90;;;;;;5033814;28;20432;-81
2022/01/19 01:44:52;;;;;;;67.35;31.38;;;3.60;99.90;;;;;;5018489;28;20073;-81
2022/01/19 01:47:19;;;;;;;68.72;31.52;;;3.50;99.90;;;;;;5018172;28;20041;-81
2022/01/19 01:55:12;;;;;;;78.50;30.23;;;3.50;99.90;;;;;;5034344;28;20479;-81
2022/01/19 01:57:38;;;;;;;69.00;28.38;;;3.50;99.90;;;;;;5034264;28;20492;-81
2022/01/19 02:00:06;;;;;;;76.65;27.40;;;3.40;99.90;;;;;;5002035;28;20041;-81
2022/01/19 02:02:32;;;;;;;62.08;27.35;;;3.30;99.90;;;;;;5034583;28;20132;-81
2022/01/19 02:04:58;;;;;;;69.55;28.08;;;3.30;99.90;;;;;;5018103;28;20456;-81
2022/01/19 02:07:42;;;;;;;67.40;29.38;;;3.30;99.90;;;;;;5001834;28;20041;-81
2022/01/19 02:10:19;;;;;;;65.13;28.65;;;3.30;99.90;;;;;;5017964;28;20072;-81
2022/01/19 02:23:51;;;;;;;86.90;29.90;;;3.30;99.90;;;;;;5020418;28;20075;-81
2022/01/19 02:26:25;;;;;;;82.63;27.75;;;3.20;99.90;;;;;;4987186;28;20048;-81
2022/01/19 02:42:51;;;;;;;64.00;27.52;;;3.10;99.90;;;;;;5036799;28;20053;-81
2022/01/19 02:50:31;;;;;;;67.32;27.88;;;2.90;99.90;;;;;;5037307;28;20443;-81
2022/01/19 02:52:56;;;;;;;67.07;29.20;;;2.90;99.90;;;;;;5037701;28;20048;-81
2022/01/19 02:55:23;;;;;;;66.13;28.30;;;3.10;99.90;;;;;;5036502;28;20389;-81
2022/01/19 02:57:49;;;;;;;107.60;30.80;;;2.90;99.90;;;;;;5021499;28;20131;-81
2022/01/19 03:08:50;;;;;;;72.90;29.05;;;3.30;99.90;;;;;;5023380;28;20044;-81
2022/01/19 03:11:18;;;;;;;73.22;30.17;;;2.70;99.90;;;;;;5019860;28;20123;-81
2022/01/19 03:13:46;;;;;;;167.65;36.20;;;2.70;99.90;;;;;;5021001;28;20539;-81
2022/01/19 03:16:12;;;;;;;111.80;35.33;;;2.80;99.90;;;;;;5037326;28;20124;-81
2022/01/19 03:18:38;;;;;;;107.43;34.35;;;2.90;99.90;;;;;;5020599;28;20080;-81
2022/01/19 03:21:05;;;;;;;89.85;32.70;;;2.90;99.90;;;;;;5036679;28;20044;-81
2022/01/19 03:23:31;;;;;;;446.00;43.22;;;3.30;99.90;;;;;;5020642;28;20033;-81
2022/01/19 03:25:58;;;;;;;465.42;40.03;;;2.80;99.90;;;;;;5019663;28;20033;-81
2022/01/19 03:28:24;;;;;;;959.40;55.17;;;2.90;99.90;;;;;;4988333;28;20400;-81
2022/01/19 03:30:50;;;;;;;147.80;35.03;;;2.90;99.90;;;;;;5020725;28;20037;-81
2022/01/19 03:33:16;;;;;;;346.65;33.38;;;3.40;99.90;;;;;;5036873;28;20037;-81
2022/01/19 03:35:43;;;;;;;577.45;41.35;;;2.80;99.90;;;;;;5020488;28;20132;-81
2022/01/19 03:38:10;;;;;;;633.55;42.92;;;2.90;99.90;;;;;;5004334;28;20083;-81
2022/01/19 03:40:36;;;;;;;340.05;34.47;;;2.80;99.90;;;;;;5002932;28;20070;-81
2022/01/19 03:43:05;;;;;;;160.30;33.28;;;2.90;99.90;;;;;;5019469;28;20049;-81
2022/01/19 03:45:32;;;;;;;149.95;32.08;;;2.80;99.90;;;;;;5020110;28;20432;-81
2022/01/19 03:50:42;;;;;;;464.70;37.10;;;2.90;99.90;;;;;;5016543;28;20080;-81
2022/01/19 03:53:08;;;;;;;420.60;33.25;;;2.90;99.90;;;;;;5000872;28;20092;-81
2022/01/19 03:55:34;;;;;;;522.90;35.40;;;2.90;99.90;;;;;;5015658;28;21086;-81
2022/01/19 03:58:00;;;;;;;241.30;30.15;;;2.90;99.90;;;;;;4984261;28;20124;-81
2022/01/19 04:00:27;;;;;;;393.02;31.08;;;2.80;99.90;;;;;;5000305;28;20135;-81
2022/01/19 04:02:52;;;;;;;396.63;35.55;;;2.90;99.90;;;;;;5016594;28;20045;-81
2022/01/19 04:05:26;;;;;;;487.00;36.80;;;3.10;99.90;;;;;;5000223;28;20152;-81
2022/01/19 04:07:52;;;;;;;148.70;28.35;;;2.70;99.90;;;;;;5001329;28;20120;-81
2022/01/19 04:10:18;;;;;;;210.15;29.25;;;3.00;99.90;;;;;;4999719;28;20570;-81
2022/01/19 04:12:54;;;;;;;356.10;35.22;;;2.60;99.90;;;;;;5016012;28;20041;-81
2022/01/19 04:15:20;;;;;;;234.77;32.25;;;2.70;99.90;;;;;;4999852;28;20041;-81
2022/01/19 04:17:51;;;;;;;363.23;34.30;;;2.60;99.90;;;;;;4983602;28;20037;-81
2022/01/19 04:20:18;;;;;;;106.80;29.02;;;2.60;99.90;;;;;;5013084;28;20098;-81
2022/01/19 04:22:44;;;;;;;71.93;28.15;;;2.60;99.90;;;;;;5019460;28;20079;-81
2022/01/19 04:25:09;;;;;;;120.22;30.40;;;2.90;99.90;;;;;;5019862;28;20068;-81
2022/01/19 04:27:35;;;;;;;65.28;28.42;;;2.60;99.90;;;;;;5002269;28;20033;-81
2022/01/19 04:32:40;;;;;;;67.13;28.58;;;2.60;99.90;;;;;;5035364;28;20052;-81
2022/01/19 04:35:08;;;;;;;175.82;31.38;;;2.50;99.90;;;;;;5020560;28;20083;-81
2022/01/19 05:07:14;;;;;;;202.38;31.27;;;2.60;99.90;;;;;;4999092;28;20041;-81
2022/01/19 05:10:03;;;;;;;472.70;37.80;;;2.50;99.90;;;;;;5001498;28;20037;-81
2022/01/19 05:15:14;;;;;;;195.02;32.53;;;2.40;99.90;;;;;;5018047;28;20056;-81
2022/01/19 05:17:39;;;;;;;293.40;36.60;;;2.30;99.90;;;;;;5031999;28;20045;-81
2022/01/19 05:20:08;;;;;;;81.25;31.15;;;2.50;99.90;;;;;;4999213;28;20128;-81
2022/01/19 05:22:34;;;;;;;93.40;29.52;;;2.30;99.90;;;;;;5014721;28;20045;-81
2022/01/19 05:25:01;;;;;;;200.55;33.10;;;2.30;99.90;;;;;;5047954;28;20499;-81
2022/01/19 05:27:27;;;;;;;130.10;33.63;;;2.30;99.90;;;;;;5014587;28;20046;-81
2022/01/19 05:29:52;;;;;;;81.55;30.63;;;3.00;99.90;;;;;;5031742;28;20040;-81
2022/01/19 05:32:18;;;;;;;130.98;34.47;;;2.20;99.90;;;;;;5048508;28;20041;-81
2022/01/19 05:34:44;;;;;;;99.70;31.98;;;2.20;99.90;;;;;;5015228;28;20424;-81
2022/01/19 05:37:10;;;;;;;209.60;36.15;;;2.20;99.90;;;;;;5048188;28;20041;-81
2022/01/19 05:39:36;;;;;;;154.80;34.85;;;2.20;99.90;;;;;;5015268;28;20041;-81
2022/01/19 05:42:02;;;;;;;282.08;39.55;;;2.20;99.90;;;;;;5047146;28;20404;-81
2022/01/19 05:44:28;;;;;;;396.20;41.70;;;2.10;99.90;;;;;;5031616;28;20042;-81
2022/01/19 05:46:53;;;;;;;109.93;34.75;;;2.20;99.90;;;;;;5014824;28;20068;-81
2022/01/19 05:49:19;;;;;;;178.93;38.17;;;2.10;99.90;;;;;;4982571;28;20044;-81
2022/01/19 05:51:47;;;;;;;158.57;36.20;;;2.10;99.90;;;;;;4998658;28;20045;-81
2022/01/19 05:54:13;;;;;;;101.53;38.67;;;2.10;99.90;;;;;;5014967;28;20128;-81
2022/01/19 05:56:39;;;;;;;110.63;39.30;;;2.10;99.90;;;;;;4997689;28;20470;-81
2022/01/19 05:59:05;;;;;;;120.50;40.95;;;2.10;99.90;;;;;;5031490;28;20093;-81
2022/01/19 06:01:31;;;;;;;110.25;39.75;;;2.20;99.90;;;;;;5014534;28;20044;-81
2022/01/19 06:03:57;;;;;;;104.55;39.47;;;2.30;99.90;;;;;;4998192;28;20033;-81
2022/01/19 06:06:22;;;;;;;149.35;42.83;;;2.40;99.90;;;;;;5015559;28;20112;-81
2022/01/19 06:08:59;;;;;;;112.72;37.33;;;2.30;99.90;;;;;;5018787;28;20045;-81
2022/01/19 06:11:25;;;;;;;290.08;47.53;;;3.10;99.90;;;;;;5034115;28;20041;-81
2022/01/19 06:13:51;;;;;;;130.18;41.60;;;2.20;99.90;;;;;;5028867;28;20063;-81
2022/01/19 06:16:17;;;;;;;137.15;43.05;;;2.30;99.90;;;;;;5018086;28;20045;-81
2022/01/19 06:18:43;;;;;;;135.05;42.95;;;2.20;99.90;;;;;;5018885;28;20045;-81
2022/01/19 06:21:09;;;;;;;128.25;40.08;;;2.30;99.90;;;;;;5018320;28;20048;-81
2022/01/19 06:23:36;;;;;;;123.82;41.42;;;2.70;99.90;;;;;;5034867;28;20038;-81
2022/01/19 06:26:03;;;;;;;160.27;42.40;;;2.30;99.90;;;;;;5033910;28;20076;-81
2022/01/19 06:28:29;;;;;;;133.45;40.65;;;2.30;99.90;;;;;;5001915;28;20034;-81
2022/01/19 06:30:54;;;;;;;114.55;41.30;;;2.30;99.90;;;;;;5001101;28;20493;-81
2022/01/19 06:33:20;;;;;;;113.95;39.92;;;2.30;99.90;;;;;;5018298;28;20041;-81
2022/01/19 06:35:46;;;;;;;111.85;40.13;;;2.30;99.90;;;;;;5018226;28;20042;-81
2022/01/19 06:38:12;;;;;;;109.00;38.58;;;2.30;99.90;;;;;;5034506;28;20405;-81
2022/01/19 06:40:37;;;;;;;124.80;39.72;;;2.40;99.90;;;;;;5017259;28;20041;-81
2022/01/19 06:43:03;;;;;;;112.32;41.78;;;2.40;99.90;;;;;;5018024;28;20045;-81
2022/01/19 06:45:29;;;;;;;103.00;39.08;;;2.70;99.90;;;;;;5001615;28;20076;-81
2022/01/19 06:47:55;;;;;;;132.07;42.40;;;2.40;99.90;;;;;;5001974;28;20370;-81
2022/01/19 06:50:23;;;;;;;91.57;39.67;;;3.00;99.90;;;;;;5001373;28;20099;-81
2022/01/19 06:52:49;;;;;;;103.60;41.28;;;2.40;99.90;;;;;;5017335;28;20053;-81
2022/01/19 06:55:16;;;;;;;92.35;39.25;;;2.40;99.90;;;;;;5033574;28;20049;-81
2022/01/19 06:57:46;;;;;;;93.63;38.85;;;2.40;99.90;;;;;;5037133;28;20057;-81
2022/01/19 07:00:14;;;;;;;108.85;39.53;;;2.40;99.90;;;;;;5004871;28;20098;-81
2022/01/19 07:02:39;;;;;;;96.03;39.70;;;2.40;99.90;;;;;;5004547;28;20128;-81
2022/01/19 07:05:05;;;;;;;120.57;43.88;;;2.70;99.90;;;;;;5037267;28;20123;-81
2022/01/19 07:07:31;;;;;;;95.00;40.53;;;2.40;99.90;;;;;;5020779;28;20075;-81
2022/01/19 07:09:57;;;;;;;88.50;41.08;;;2.40;99.90;;;;;;5004362;28;20047;-81
2022/01/19 07:12:26;;;;;;;113.88;45.53;;;2.40;99.90;;;;;;5020111;28;20047;-81
2022/01/19 07:14:51;;;;;;;97.20;40.70;;;2.40;99.90;;;;;;5037222;28;20041;-81
2022/01/19 07:17:17;;;;;;;108.72;44.33;;;2.50;99.90;;;;;;5037028;28;20469;-81
2022/01/19 07:19:43;;;;;;;99.20;42.42;;;2.50;99.90;;;;;;5020872;28;20044;-81
2022/01/19 07:22:09;;;;;;;91.75;41.97;;;2.50;99.90;;;;;;4988018;28;20048;-81
2022/01/19 07:24:34;;;;;;;98.28;42.80;;;2.60;99.90;;;;;;5004120;28;20041;-81
2022/01/19 07:27:00;;;;;;;92.97;40.40;;;2.50;99.90;;;;;;5003223;28;20041;-81
2022/01/19 07:29:26;;;;;;;90.97;42.50;;;2.50;99.90;;;;;;5037111;28;20041;-81
2022/01/19 07:31:55;;;;;;;80.30;40.42;;;2.60;99.90;;;;;;5020307;28;20049;-81
2022/01/19 07:34:20;;;;;;;87.85;42.60;;;2.60;99.90;;;;;;5004662;28;20045;-81
2022/01/19 07:36:46;;;;;;;87.70;42.92;;;2.70;99.90;;;;;;5020504;28;20488;-81
2022/01/19 07:39:12;;;;;;;88.15;45.05;;;2.60;99.90;;;;;;5003994;28;20051;-81
2022/01/19 07:41:38;;;;;;;86.95;44.28;;;2.60;99.90;;;;;;5019228;28;20045;-81
2022/01/19 07:44:05;;;;;;;85.88;43.03;;;2.60;99.90;;;;;;5003988;28;20075;-81
2022/01/19 07:46:30;;;;;;;83.07;42.03;;;2.90;99.90;;;;;;5003712;28;20043;-81
2022/01/19 07:48:56;;;;;;;91.55;44.88;;;2.60;99.90;;;;;;5003919;28;20076;-81
2022/01/19 07:51:22;;;;;;;83.68;44.13;;;2.70;99.90;;;;;;5003833;28;20045;-81
2022/01/19 07:53:47;;;;;;;85.22;45.25;;;2.80;99.90;;;;;;4987680;28;20081;-81
2022/01/19 07:56:13;;;;;;;84.03;45.72;;;3.30;99.90;;;;;;5018832;28;20068;-81
2022/01/19 07:58:39;;;;;;;90.88;47.92;;;2.70;99.90;;;;;;5036486;28;20056;-81
2022/01/19 08:01:05;;;;;;;79.35;44.03;;;2.80;99.90;;;;;;5003140;28;20501;-81
2022/01/19 08:03:30;;;;;;;85.72;46.03;;;2.80;99.90;;;;;;5003377;28;20097;-81
2022/01/19 08:05:56;;;;;;;90.90;47.58;;;2.80;99.90;;;;;;5019675;28;20519;-81
2022/01/19 08:08:22;;;;;;;76.07;42.67;;;2.70;99.90;;;;;;5019922;28;20098;-81
2022/01/19 08:10:48;;;;;;;81.00;44.33;;;2.80;99.90;;;;;;5018705;28;20037;-81
2022/01/19 08:13:15;;;;;;;79.40;44.70;;;3.20;99.90;;;;;;4987343;28;20098;-81
2022/01/19 08:15:41;;;;;;;84.85;47.35;;;2.80;99.90;;;;;;5019725;28;20485;-81
2022/01/19 08:18:06;;;;;;;80.35;46.10;;;2.80;99.90;;;;;;5003309;28;20044;-81
2022/01/19 08:20:32;;;;;;;81.75;45.58;;;2.90;99.90;;;;;;5019648;28;20545;-81
2022/01/19 08:22:58;;;;;;;77.00;45.28;;;2.90;99.90;;;;;;5035949;28;20037;-81
2022/01/19 08:25:24;;;;;;;80.30;47.90;;;3.20;99.90;;;;;;5018620;28;20052;-81
2022/01/19 08:27:50;;;;;;;77.00;46.22;;;3.00;99.90;;;;;;5036171;28;20467;-81
2022/01/19 08:30:16;;;;;;;84.97;49.58;;;3.00;99.90;;;;;;5002416;28;20127;-81
2022/01/19 08:32:42;;;;;;;81.07;49.13;;;3.00;99.90;;;;;;5019045;28;20049;-81
2022/01/19 08:35:09;;;;;;;89.38;52.95;;;3.00;99.90;;;;;;4986750;28;20043;-81
2022/01/19 08:37:35;;;;;;;83.95;50.50;;;3.10;99.90;;;;;;5019216;28;20100;-81
2022/01/19 08:40:04;;;;;;;79.10;49.38;;;3.10;99.90;;;;;;4986798;28;20045;-81
2022/01/19 08:42:30;;;;;;;84.93;50.47;;;3.10;99.90;;;;;;5018160;28;20045;-81
2022/01/19 08:44:56;;;;;;;78.85;50.70;;;3.10;99.90;;;;;;5035588;28;20120;-81
2022/01/19 08:47:22;;;;;;;82.45;49.88;;;3.30;99.90;;;;;;5002447;28;20076;-81
2022/01/19 08:49:48;;;;;;;81.78;51.83;;;3.10;99.90;;;;;;5019218;28;20136;-81
2022/01/19 08:52:16;;;;;;;86.32;52.85;;;3.20;99.90;;;;;;5035564;28;20409;-81
2022/01/19 08:54:42;;;;;;;87.40;54.75;;;3.20;99.90;;;;;;5019130;28;20143;-81
2022/01/19 08:57:08;;;;;;;85.78;52.67;;;3.20;99.90;;;;;;5014480;28;20061;-81
2022/01/19 08:59:34;;;;;;;86.45;53.30;;;3.20;99.90;;;;;;4999632;28;20551;-81
2022/01/19 09:02:00;;;;;;;93.32;55.90;;;3.40;99.90;;;;;;5015462;28;20067;-81
2022/01/19 09:04:26;;;;;;;90.15;54.65;;;3.30;99.90;;;;;;4999279;28;20134;-81
2022/01/19 09:06:53;;;;;;;83.35;51.53;;;3.30;99.90;;;;;;4999038;28;20045;-81
2022/01/19 09:09:20;;;;;;;91.25;54.28;;;3.40;99.90;;;;;;5032032;28;20405;-81
2022/01/19 09:11:45;;;;;;;85.45;52.67;;;3.40;99.90;;;;;;5030896;28;20041;-81
2022/01/19 09:14:11;;;;;;;87.68;53.75;;;3.40;99.90;;;;;;5015675;28;20543;-81
2022/01/19 09:16:39;;;;;;;91.07;53.55;;;3.40;99.90;;;;;;5015292;28;20164;-81
2022/01/19 09:19:12;;;;;;;90.70;55.13;;;3.50;99.90;;;;;;5015743;28;20048;-81
2022/01/19 09:21:38;;;;;;;83.30;50.05;;;3.50;99.90;;;;;;5031768;28;20124;-81
2022/01/19 09:24:04;;;;;;;90.10;54.88;;;3.50;99.90;;;;;;5031822;28;20092;-81
2022/01/19 09:26:30;;;;;;;86.72;52.78;;;3.50;99.90;;;;;;5030658;28;20037;-81
2022/01/19 09:28:56;;;;;;;90.90;53.83;;;3.50;99.90;;;;;;5031726;28;20041;-81
2022/01/19 09:31:23;;;;;;;90.80;53.35;;;3.50;99.90;;;;;;4998732;28;20144;-81
2022/01/19 09:33:55;;;;;;;86.90;52.22;;;3.50;99.90;;;;;;5015441;28;20099;-81
2022/01/19 09:36:34;;;;;;;76.95;47.92;;;3.60;99.90;;;;;;4999678;28;20037;-81
2022/01/19 09:39:02;;;;;;;86.22;53.67;;;3.60;99.90;;;;;;5031961;28;20125;-81
2022/01/19 09:41:29;;;;;;;84.15;52.97;;;3.60;99.90;;;;;;5017367;28;20040;-81
2022/01/19 09:43:56;;;;;;;85.55;52.95;;;3.60;99.90;;;;;;5003053;28;20045;-81
2022/01/19 09:46:22;;;;;;;84.57;53.25;;;3.70;99.90;;;;;;5035380;28;20102;-81
2022/01/19 09:48:48;;;;;;;80.57;50.15;;;3.70;99.90;;;;;;5002720;28;20037;-81
2022/01/19 09:51:14;;;;;;;85.65;51.60;;;3.70;99.90;;;;;;5002623;28;20541;-81
2022/01/19 09:53:41;;;;;;;96.35;55.00;;;3.70;99.90;;;;;;5035549;28;20064;-81
2022/01/19 09:56:07;;;;;;;85.40;52.10;;;3.70;99.90;;;;;;5001478;28;20053;-81
2022/01/19 09:58:33;;;;;;;88.97;53.53;;;3.80;99.90;;;;;;5019060;28;20128;-81
2022/01/19 10:00:59;;;;;;;84.70;52.47;;;4.30;99.90;;;;;;5018541;28;20127;-81
2022/01/19 10:03:27;;;;;;;85.97;51.53;;;4.30;99.90;;;;;;5019202;28;20491;-81
2022/01/19 10:05:55;;;;;;;97.22;57.45;;;3.70;99.90;;;;;;5018534;28;20083;-81
2022/01/19 10:08:40;;;;;;;108.10;59.65;;;3.80;99.90;;;;;;5035254;28;20038;-81
2022/01/19 10:16:58;;;;;;;95.40;53.33;;;3.80;99.90;;;;;;5034234;28;20090;-81
2022/01/19 10:17:02;;;;;;;97.57;55.08;;;3.80;99.90;;;;;;5020958;28;20046;-81
2022/01/19 10:19:36;;;;;;;91.15;53.78;;;4.30;99.90;;;;;;5019135;28;20073;-81
2022/01/19 10:22:09;;;;;;;103.95;57.85;;;3.90;99.90;;;;;;5034773;28;20041;-81
2022/01/19 10:24:46;;;;;;;101.70;54.78;;;3.80;99.90;;;;;;5018725;28;20049;-81
2022/01/19 10:27:24;;;;;;;99.88;57.75;;;3.90;99.90;;;;;;5033922;28;20064;-81
2022/01/19 10:29:56;;;;;;;99.80;55.17;;;3.90;99.90;;;;;;5034896;28;20083;-81
2022/01/19 10:32:24;;;;;;;95.57;54.83;;;3.90;99.90;;;;;;5018210;28;20071;-81
2022/01/19 10:34:51;;;;;;;106.68;58.85;;;3.90;99.90;;;;;;5034698;28;20051;-81
2022/01/19 10:37:26;;;;;;;104.90;57.00;;;3.90;99.90;;;;;;5014669;28;20042;-81
2022/01/19 10:39:54;;;;;;;106.93;60.22;;;3.80;99.90;;;;;;4998893;28;20512;-81
2022/01/19 10:42:27;;;;;;;109.82;59.70;;;3.90;99.90;;;;;;5013881;28;20157;-81
2022/01/19 10:44:54;;;;;;;;;;;3.90;99.90;;;;;;4998937;28;20041;-81
2022/01/19 10:47:54;;;;;;;105.18;57.13;;;3.90;99.90;;;;;;5014812;28;20285;-81
2022/01/19 10:50:31;;;;;;;104.68;54.67;;;3.90;99.90;;;;;;5014752;28;20479;-81
2022/01/19 10:53:00;;;;;;;113.05;59.72;;;4.00;99.90;;;;;;4997746;28;20049;-81
2022/01/19 10:55:46;;;;;;;111.20;59.08;;;4.00;99.90;;;;;;5013687;28;20045;-81
2022/01/19 10:58:15;;;;;;;118.13;61.05;;;4.10;99.90;;;;;;5014720;28;20397;-81
2022/01/19 11:00:49;;;;;;;117.53;62.90;;;4.10;99.90;;;;;;5014256;28;20041;-81
2022/01/19 11:03:21;;;;;;;119.75;63.42;;;4.10;99.90;;;;;;5014545;28;20046;-81
2022/01/19 11:05:53;;;;;;;119.93;61.90;;;4.10;99.90;;;;;;5014316;28;20088;-81
2022/01/19 11:08:21;;;;;;;121.90;62.78;;;4.10;99.90;;;;;;4998044;28;20037;-81
2022/01/19 11:10:49;;;;;;;118.00;61.35;;;4.10;99.90;;;;;;5033281;28;20124;-81
2022/01/19 11:13:25;;;;;;;116.55;57.67;;;4.50;99.90;;;;;;5001481;28;20049;-81
2022/01/19 11:15:51;;;;;;;126.35;61.97;;;4.20;99.90;;;;;;5002758;28;20068;-81
2022/01/19 11:18:19;;;;;;;129.27;62.58;;;4.10;99.90;;;;;;5033981;28;20042;-81
2022/01/19 11:20:49;;;;;;;124.97;61.97;;;4.10;99.90;;;;;;5017768;28;20524;-81
2022/01/19 11:23:31;;;;;;;121.05;58.10;;;4.20;99.90;;;;;;5033709;28;20124;-81
2022/01/19 11:26:07;;;;;;;135.93;66.32;;;4.20;99.90;;;;;;5016469;28;20497;-81
2022/01/19 11:28:38;;;;;;;136.93;66.43;;;4.20;99.90;;;;;;5017436;28;20049;-81
2022/01/19 11:31:14;;;;;;;130.57;62.65;;;4.20;99.90;;;;;;5016927;28;20033;-81
2022/01/19 11:33:43;;;;;;;130.05;64.78;;;4.30;99.90;;;;;;5017081;28;20038;-81
2022/01/19 11:36:42;;;;;;;125.10;63.03;;;4.30;99.90;;;;;;5033424;28;20106;-81
2022/01/19 11:39:10;;;;;;;127.68;63.85;;;4.30;99.90;;;;;;4975510;28;20049;-81
2022/01/19 11:41:38;;;;;;;133.82;66.32;;;4.30;99.90;;;;;;5015917;28;20056;-81
2022/01/19 11:44:05;;;;;;;133.07;65.68;;;4.30;99.90;;;;;;5017293;28;20389;-81
2022/01/19 11:46:39;;;;;;;141.88;69.85;;;4.30;99.90;;;;;;5016617;28;20038;-81
2022/01/19 11:49:10;;;;;;;148.40;67.95;;;4.30;99.90;;;;;;5016919;28;20041;-81
2022/01/19 11:51:39;;;;;;;153.48;69.47;;;4.40;99.90;;;;;;5033457;28;20053;-81
2022/01/19 11:54:28;;;;;;;130.93;63.67;;;4.30;99.90;;;;;;5033202;28;20132;-81
2022/01/19 11:57:03;;;;;;;142.00;65.18;;;4.30;99.90;;;;;;5015617;28;20065;-81
2022/01/19 11:59:34;;;;;;;156.88;70.57;;;4.30;99.90;;;;;;5017005;28;20049;-81
2022/01/19 12:02:39;;;;;;;150.75;70.70;;;4.20;99.90;;;;;;5016276;28;20046;-81
2022/01/19 12:05:10;;;;;;;152.45;67.53;;;4.30;99.90;;;;;;5015334;28;20563;-81
2022/01/19 12:07:55;;;;;;;151.27;70.85;;;4.70;99.90;;;;;;5033158;28;20045;-81
2022/01/19 12:10:30;;;;;;;151.38;68.15;;;4.20;99.90;;;;;;5031967;28;20034;-81
2022/01/19 12:16:25;;;;;;;141.55;63.22;;;4.20;99.90;;;;;;5032870;28;20445;-81
2022/01/19 12:18:53;;;;;;;149.27;65.10;;;4.20;99.90;;;;;;5033102;28;20501;-81
2022/01/19 12:21:31;;;;;;;151.68;68.55;;;4.20;99.90;;;;;;5016234;28;20870;-81
2022/01/19 12:24:29;;;;;;;142.00;66.75;;;4.40;99.90;;;;;;5016165;28;20045;-81
2022/01/19 12:26:57;;;;;;;151.32;69.07;;;4.20;99.90;;;;;;5031528;28;20056;-81
2022/01/19 12:29:41;;;;;;;150.93;70.85;;;4.30;99.90;;;;;;5016087;28;20068;-81
2022/01/19 12:32:08;;;;;;;150.40;68.75;;;4.30;99.90;;;;;;5032596;28;20033;-82
2022/01/19 12:35:07;;;;;;;150.40;70.30;;;4.30;99.90;;;;;;5032528;28;20114;-82
2022/01/19 12:37:59;;;;;;;142.73;67.32;;;4.40;99.90;;;;;;5030596;28;20049;-82
2022/01/19 12:40:40;;;;;;;135.82;65.75;;;4.30;99.90;;;;;;5030224;28;20053;-82
2022/01/19 12:43:13;;;;;;;138.48;65.13;;;4.40;99.90;;;;;;5016019;28;20509;-82
2022/01/19 12:45:48;;;;;;;135.93;63.90;;;4.40;99.90;;;;;;5032175;28;20042;-82
2022/01/19 12:48:31;;;;;;;129.90;66.00;;;4.40;99.90;;;;;;5016167;28;20033;-82
2022/01/19 12:50:56;;;;;;;135.50;64.45;;;4.40;99.90;;;;;;5017976;28;20045;-81
2022/01/19 12:53:24;;;;;;;133.55;63.80;;;4.60;99.90;;;;;;5016170;28;20033;-81
2022/01/19 12:56:02;;;;;;;125.82;62.05;;;4.40;99.90;;;;;;5015406;28;20037;-81
2022/01/19 12:58:35;;;;;;;122.63;61.30;;;4.50;99.90;;;;;;5016056;28;20501;-81
2022/01/19 13:01:05;;;;;;;117.65;57.45;;;4.50;99.90;;;;;;5015383;28;20037;-81
2022/01/19 13:03:45;;;;;;;124.40;62.55;;;4.50;99.90;;;;;;5016033;28;20079;-81
2022/01/19 13:06:15;;;;;;;122.95;58.75;;;4.50;99.90;;;;;;4999300;28;20037;-81
2022/01/19 13:09:05;;;;;;;127.13;64.32;;;4.50;99.90;;;;;;4999145;28;20041;-81
2022/01/19 13:11:45;;;;;;;143.25;65.72;;;4.50;99.90;;;;;;4984416;28;20076;-81
2022/01/19 13:14:13;;;;;;;129.15;63.20;;;4.50;99.90;;;;;;5015799;28;20048;-81
2022/01/19 13:16:42;;;;;;;132.38;64.78;;;4.50;99.90;;;;;;4998918;28;20045;-81
2022/01/19 13:19:15;;;;;;;135.30;66.45;;;4.50;99.90;;;;;;5015397;28;20111;-81
2022/01/19 13:21:43;;;;;;;133.13;65.63;;;4.50;99.90;;;;;;5031507;28;20099;-81
2022/01/19 13:24:15;;;;;;;139.05;67.72;;;4.50;99.90;;;;;;4999300;28;20049;-81
2022/01/19 13:26:45;;;;;;;130.75;66.05;;;4.50;99.90;;;;;;5014435;28;20073;-81
2022/01/19 13:29:38;;;;;;;130.93;65.20;;;4.60;99.90;;;;;;5032148;28;20103;-81
2022/01/19 13:32:12;;;;;;;124.18;63.85;;;4.60;99.90;;;;;;5015419;28;20053;-81
2022/01/19 13:35:01;;;;;;;116.93;59.00;;;4.70;99.90;;;;;;5015856;28;20128;-81
2022/01/19 13:37:51;;;;;;;119.00;58.72;;;4.50;99.90;;;;;;5015108;28;20048;-81
2022/01/19 13:40:23;;;;;;;118.95;59.95;;;4.60;99.90;;;;;;4998322;28;20045;-81
2022/01/19 13:42:51;;;;;;;;;;;4.60;99.90;;;;;;5015493;28;20049;-81
2022/01/19 13:48:28;;;;;;;112.85;59.75;;;4.70;99.90;;;;;;5031807;28;20095;-81
2022/01/19 13:51:07;;;;;;;108.43;57.50;;;4.70;99.90;;;;;;4998396;28;20104;-81
2022/01/19 13:53:39;;;;;;;114.97;60.00;;;4.60;99.90;;;;;;4999239;28;20115;-81
2022/01/19 13:56:10;;;;;;;113.47;60.80;;;4.70;99.90;;;;;;4997930;28;20045;-81
2022/01/19 13:58:42;;;;;;;111.35;58.78;;;4.70;99.90;;;;;;4998494;28;20050;-81
2022/01/19 14:01:13;;;;;;;107.45;57.88;;;4.70;99.90;;;;;;5031265;28;20033;-81
2022/01/19 14:04:03;;;;;;;117.43;62.53;;;4.70;99.90;;;;;;5031766;28;20448;-81
2022/01/19 14:06:38;;;;;;;114.60;60.67;;;4.70;99.90;;;;;;5031313;28;20124;-81
2022/01/19 14:09:14;;;;;;;100.65;55.90;;;4.70;99.90;;;;;;4998531;28;20037;-81
2022/01/19 14:12:03;;;;;;;95.05;51.47;;;4.70;99.90;;;;;;5013841;28;20045;-81
2022/01/19 14:14:38;;;;;;;104.55;57.90;;;4.80;99.90;;;;;;5015218;28;20547;-81
2022/01/19 14:17:07;;;;;;;101.40;55.03;;;4.80;99.90;;;;;;5014464;28;20033;-81
2022/01/19 14:19:41;;;;;;;95.18;53.88;;;4.80;99.90;;;;;;5015170;28;20033;-81